createdAt,value
2023-05-10T03:44:10.745Z,10.88
2023-05-10T03:47:14.127Z,10.88
2023-05-10T03:50:17.298Z,10.50
2023-05-10T03:53:20.608Z,10.54
2023-05-10T03:56:24.897Z,10.67
2023-05-10T03:59:28.104Z,10.69
2023-05-10T04:02:31.480Z,10.73
2023-05-10T04:05:37.074Z,10.71
2023-05-10T04:08:39.878Z,10.76
2023-05-10T04:11:42.868Z,10.81
2023-05-10T04:14:45.513Z,10.85
2023-05-10T04:17:48.620Z,11.05
2023-05-10T04:20:51.673Z,11.04
2023-05-10T04:23:54.427Z,11.19
2023-05-10T04:26:57.863Z,11.11
2023-05-10T04:30:01.686Z,11.17
2023-05-10T04:33:04.591Z,11.27
2023-05-10T04:36:07.944Z,11.30
2023-05-10T04:39:10.924Z,11.17
2023-05-10T04:42:15.852Z,11.13
2023-05-10T04:45:18.714Z,11.04
2023-05-10T04:48:21.698Z,10.97
2023-05-10T04:51:24.276Z,10.90
2023-05-10T04:54:27.433Z,10.96
2023-05-10T04:57:30.018Z,11.17
2023-05-10T05:00:36.170Z,11.52
2023-05-10T05:03:38.911Z,11.67
2023-05-10T05:06:41.973Z,11.77
2023-05-10T05:09:44.660Z,11.94
2023-05-10T05:12:47.598Z,12.10
2023-05-10T05:15:50.237Z,12.15
2023-05-10T05:18:53.181Z,12.15
2023-05-10T05:21:55.783Z,12.29
2023-05-10T05:25:03.577Z,12.19
2023-05-10T05:28:06.186Z,12.04
2023-05-10T05:31:09.385Z,12.12
2023-05-10T05:34:13.156Z,12.48
2023-05-10T05:37:23.254Z,12.72
2023-05-10T05:40:25.901Z,12.80
2023-05-10T05:43:28.856Z,12.93
2023-05-10T05:46:31.650Z,13.14
2023-05-10T05:49:34.497Z,13.39
2023-05-10T05:52:37.250Z,13.52
2023-05-10T05:55:40.093Z,13.52
2023-05-10T05:58:42.535Z,13.59
2023-05-10T06:01:45.575Z,13.44
2023-05-10T06:04:48.589Z,13.56
2023-05-10T06:07:51.229Z,13.73
2023-05-10T06:10:54.110Z,13.89
2023-05-10T06:13:57.014Z,13.87
2023-05-10T06:17:01.126Z,13.78
2023-05-10T06:20:04.543Z,13.80
2023-05-10T06:23:07.963Z,13.98
2023-05-10T06:26:11.054Z,14.29
2023-05-10T06:29:14.168Z,14.56
2023-05-10T06:32:16.797Z,14.89
2023-05-10T06:35:19.883Z,15.19
2023-05-10T06:38:22.817Z,15.25
2023-05-10T06:41:25.620Z,15.22
2023-05-10T06:44:28.255Z,15.00
2023-05-10T06:47:31.052Z,15.00
2023-05-10T06:50:34.350Z,14.84
2023-05-10T06:53:37.392Z,14.72
2023-05-10T06:56:39.965Z,14.42
2023-05-10T06:59:42.865Z,14.58
2023-05-10T07:02:45.802Z,14.76
2023-05-10T07:05:48.755Z,14.75
2023-05-10T07:08:51.507Z,14.78
2023-05-10T07:11:54.498Z,14.85
2023-05-10T07:14:57.180Z,14.95
2023-05-10T07:18:00.300Z,15.35
2023-05-10T07:21:04.109Z,15.51
2023-05-10T07:24:07.206Z,15.83
2023-05-10T07:27:10.170Z,15.89
2023-05-10T07:30:13.878Z,15.87
2023-05-10T07:33:17.050Z,16.10
2023-05-10T07:36:20.063Z,16.29
2023-05-10T07:39:27.792Z,16.77
2023-05-10T07:42:31.112Z,16.91
2023-05-10T07:45:34.676Z,16.76
2023-05-10T07:48:38.273Z,16.97
2023-05-10T07:51:41.509Z,17.29
2023-05-10T07:54:44.521Z,16.87
2023-05-10T07:57:47.217Z,16.89
2023-05-10T08:00:50.437Z,16.98
2023-05-10T08:03:54.684Z,17.67
2023-05-10T08:06:57.522Z,18.47
2023-05-10T08:10:00.831Z,18.78
2023-05-10T08:13:03.397Z,18.94
2023-05-10T08:16:06.455Z,19.27
2023-05-10T08:19:09.107Z,19.19
2023-05-10T08:22:12.160Z,19.26
2023-05-10T08:25:14.968Z,18.98
2023-05-10T08:28:18.947Z,18.60
2023-05-10T08:31:21.665Z,18.56
2023-05-10T08:34:25.027Z,19.00
2023-05-10T08:37:31.139Z,19.46
2023-05-10T08:40:34.296Z,19.48
2023-05-10T08:43:37.131Z,19.48
2023-05-10T08:46:46.307Z,19.24
2023-05-10T08:49:52.314Z,19.07
2023-05-10T08:52:58.700Z,18.86
2023-05-10T08:56:02.881Z,18.85
2023-05-10T08:59:05.868Z,19.41
2023-05-10T09:02:12.663Z,19.51
2023-05-10T09:05:17.221Z,19.61
2023-05-10T09:08:21.351Z,19.31
2023-05-10T09:11:25.327Z,19.45
2023-05-10T09:14:28.146Z,18.96
2023-05-10T09:17:31.340Z,19.50
2023-05-10T09:20:33.916Z,19.91
2023-05-10T09:23:38.865Z,20.12
2023-05-10T09:26:53.045Z,19.50
2023-05-10T09:29:56.790Z,19.76
2023-05-10T09:33:01.321Z,19.92
2023-05-10T09:36:09.261Z,19.78
2023-05-10T09:39:11.856Z,19.65
2023-05-10T09:42:19.259Z,20.11
2023-05-10T09:45:23.085Z,20.44
2023-05-10T09:48:26.097Z,20.87
2023-05-10T09:51:28.968Z,20.27
2023-05-10T09:54:33.358Z,20.21
2023-05-10T09:57:35.917Z,20.24
2023-05-10T10:00:39.557Z,20.76
2023-05-10T10:03:44.488Z,20.81
2023-05-10T10:06:47.127Z,21.15
2023-05-10T10:09:50.004Z,20.92
2023-05-10T10:12:53.109Z,20.42
2023-05-10T10:15:56.069Z,21.00
2023-05-10T10:18:59.589Z,20.98
2023-05-10T10:22:02.462Z,20.48
2023-05-10T10:25:05.918Z,21.52
2023-05-10T10:28:28.471Z,22.10
2023-05-10T10:31:47.399Z,22.73
2023-05-10T10:34:51.046Z,22.65
2023-05-10T10:37:53.947Z,22.16
2023-05-10T10:41:08.910Z,22.67
2023-05-10T10:44:23.621Z,23.64
2023-05-10T10:47:32.097Z,23.32
2023-05-10T10:50:45.920Z,23.03
2023-05-10T10:53:49.338Z,22.91
2023-05-10T10:57:24.469Z,23.18
2023-05-10T11:00:30.204Z,23.58
2023-05-10T11:03:32.790Z,24.02
2023-05-10T11:06:37.237Z,24.46
2023-05-10T11:09:41.394Z,24.88
2023-05-10T11:12:55.174Z,25.03
2023-05-10T11:15:58.340Z,24.31
2023-05-10T11:19:07.845Z,23.18
2023-05-10T11:22:14.809Z,22.27
2023-05-10T11:25:17.671Z,22.66
2023-05-10T11:28:20.801Z,23.15
2023-05-10T11:31:24.915Z,22.98
2023-05-10T11:34:31.342Z,22.46
2023-05-10T11:37:35.390Z,21.81
2023-05-10T11:40:39.322Z,21.85
2023-05-10T11:43:43.175Z,21.77
2023-05-10T11:46:45.917Z,21.44
2023-05-10T11:49:49.432Z,21.38
2023-05-10T11:53:01.209Z,20.99
2023-05-10T11:56:08.798Z,21.35
2023-05-10T11:59:11.614Z,21.71
2023-05-10T12:02:15.271Z,21.97
2023-05-10T12:05:18.872Z,21.50
2023-05-10T12:08:26.720Z,21.64
2023-05-10T12:11:29.831Z,21.37
2023-05-10T12:14:36.197Z,21.50
2023-05-10T12:17:43.324Z,22.41
2023-05-10T12:20:46.126Z,24.45
2023-05-10T12:23:54.417Z,24.85
2023-05-10T12:26:57.067Z,24.47
2023-05-10T12:30:04.085Z,23.98
2023-05-10T12:33:12.834Z,23.79
2023-05-10T12:36:19.008Z,24.10
2023-05-10T12:39:21.806Z,24.81
2023-05-10T12:42:26.190Z,25.65
2023-05-10T12:45:28.802Z,26.17
2023-05-10T12:48:32.799Z,31.78
2023-05-10T12:51:37.980Z,33.39
2023-05-10T12:54:40.921Z,30.62
2023-05-10T12:57:45.578Z,26.87
2023-05-10T13:00:48.659Z,25.33
2023-05-10T13:03:51.546Z,24.04
2023-05-10T13:06:56.492Z,24.11
2023-05-10T13:09:59.119Z,24.58
2023-05-10T13:13:04.136Z,25.78
2023-05-10T13:16:07.188Z,26.95
2023-05-10T13:19:10.256Z,28.48
2023-05-10T13:22:13.159Z,28.20
2023-05-10T13:25:16.049Z,28.44
2023-05-10T13:28:18.564Z,29.97
2023-05-10T13:31:21.704Z,31.85
2023-05-10T13:34:25.241Z,30.56
2023-05-10T13:37:28.136Z,28.32
2023-05-10T13:40:30.829Z,26.85
2023-05-10T13:43:33.705Z,26.69
2023-05-10T13:46:36.324Z,26.75
2023-05-10T13:49:39.630Z,27.58
2023-05-10T13:52:42.198Z,27.97
2023-05-10T13:55:45.162Z,27.98
2023-05-10T13:58:48.559Z,27.14
2023-05-10T14:01:51.755Z,28.55
2023-05-10T14:04:54.618Z,33.91
2023-05-10T14:07:57.379Z,36.80
2023-05-10T14:11:00.560Z,36.88
2023-05-10T14:14:15.493Z,33.74
2023-05-10T14:17:21.205Z,33.26
2023-05-10T14:20:24.058Z,37.46
2023-05-10T14:23:27.251Z,36.04
2023-05-10T14:26:32.440Z,34.55
2023-05-10T14:29:35.370Z,31.71
2023-05-10T14:32:38.233Z,30.31
2023-05-10T14:35:41.639Z,34.65
2023-05-10T14:38:44.282Z,34.07
2023-05-10T14:41:48.231Z,34.82
2023-05-10T14:44:50.867Z,31.46
2023-05-10T14:47:55.937Z,34.11
2023-05-10T14:50:58.628Z,35.74
2023-05-10T14:54:01.730Z,38.17
2023-05-10T14:57:04.309Z,37.80
2023-05-10T15:00:08.184Z,34.69
2023-05-10T15:03:11.496Z,30.73
2023-05-10T15:06:18.134Z,27.88
2023-05-10T15:09:20.798Z,25.54
2023-05-10T15:12:23.732Z,23.72
2023-05-10T15:15:26.388Z,22.51
2023-05-10T15:18:29.332Z,22.20
2023-05-10T15:21:36.144Z,22.09
2023-05-10T15:24:39.230Z,22.02
2023-05-10T15:27:41.690Z,21.82
2023-05-10T15:30:45.075Z,21.85
2023-05-10T15:33:47.714Z,21.41
2023-05-10T15:36:50.619Z,21.67
